Aérodrome :
LOGIN :

S'inscrire | Disclaimer

   EN    FR    IT 

 










Légende :    VFR   VFR Marginal   IFR   IFR Intensif   IFR Très Intensif
Visi : 
Plafond : 
>= 8 km
>= 3000ft
5 à 8 km
1000 à 3000 ft
1500m à 5 km
500 à 1000 ft
800 à 1500m
200 à 500 ft
< 800m
< 200 ft
Symboles :   Orages  Brouillard  Fortes neiges  Fortes précipitations  Vent > 20 kt
SIGMETs :   Divers  Orages  Givrage  Turbulence  Onde Orograph.  Cendres Volcan.







- Altitude de l'aérodrome : 1017 ft
- Voir les cartes d'approche


LFSL - Brive Souillac

DERNIER METAR :
  • 260330Z AUTO 32005KT 9999 BKN003 OVC013 05/04 Q1008 TEMPO OVC005

METARs EXPIRÉS :
  • 260300Z AUTO 33005KT 280V350 9999 BKN012 BKN054 OVC076 05/04 Q1008 TEMPO OVC005
  • 260230Z AUTO 32006KT 9999 FEW005 BKN011 BKN017 05/04 Q1008 TEMPO OVC005
  • 260200Z AUTO 31006KT 9999 BKN010 OVC014 05/05 Q1008
  • 260130Z AUTO 31006KT 9999 BKN010 OVC049 05/05 Q1008

TAF AMD TAF LFSL
Valide du 26 à 03h jusqu'au 26 à 12h UTC


260339Z 2603/2612 32006KT 9999 BKN010 OVC040
PROB40 2603/2607 OVC003
BECMG 2609/2611 SCT016TCU BKN040
Pas de NOTAMs connus pour ce terrain.



MET'MAP, la Météo Aéronautique d'un coup d'oeil ! - Copyright ORBIFLY Décembre 2007 - Disclaimer

ORBIFLY MET'MAP TEAM :

Programmation & Développement : Alexandra Zaïnal
Conception & Développement : Baudouin d'Aumeries
Co-Programmation & Développement : Marc-Olivier Méhu
Soutien technique & logistique : Manuel Goepfert

Contact : metmap@orbifly.com




SOURCES & CREDITS :

   NOAA